sensor_id;sensor_type;location;lat;lon;timestamp;P1;durP1;ratioP1;P2;durP2;ratioP2
77350;SDS011;66420;50.246;14.320;2023-04-25T00:02:34;3.70;;;2.35;;
77350;SDS011;66420;50.246;14.320;2023-04-25T00:05:19;6.78;;;2.60;;
77350;SDS011;66420;50.246;14.320;2023-04-25T00:08:03;4.88;;;2.67;;
77350;SDS011;66420;50.246;14.320;2023-04-25T00:10:49;5.22;;;2.50;;
77350;SDS011;66420;50.246;14.320;2023-04-25T00:13:33;4.03;;;2.42;;
77350;SDS011;66420;50.246;14.320;2023-04-25T00:16:18;5.90;;;2.83;;
77350;SDS011;66420;50.246;14.320;2023-04-25T00:19:02;5.20;;;2.33;;
77350;SDS011;66420;50.246;14.320;2023-04-25T00:21:48;4.47;;;2.40;;
77350;SDS011;66420;50.246;14.320;2023-04-25T00:24:33;5.70;;;2.55;;
77350;SDS011;66420;50.246;14.320;2023-04-25T00:27:17;4.35;;;2.80;;
77350;SDS011;66420;50.246;14.320;2023-04-25T00:30:02;5.60;;;2.90;;
77350;SDS011;66420;50.246;14.320;2023-04-25T00:32:47;4.72;;;2.75;;
77350;SDS011;66420;50.246;14.320;2023-04-25T00:35:33;4.07;;;2.70;;
77350;SDS011;66420;50.246;14.320;2023-04-25T00:38:18;5.45;;;2.83;;
77350;SDS011;66420;50.246;14.320;2023-04-25T00:41:03;6.20;;;2.80;;
77350;SDS011;66420;50.246;14.320;2023-04-25T00:43:50;5.68;;;3.10;;
77350;SDS011;66420;50.246;14.320;2023-04-25T00:46:36;5.88;;;2.75;;
77350;SDS011;66420;50.246;14.320;2023-04-25T00:49:21;5.03;;;2.63;;
77350;SDS011;66420;50.246;14.320;2023-04-25T00:52:06;5.00;;;2.83;;
77350;SDS011;66420;50.246;14.320;2023-04-25T00:58:26;4.47;;;2.50;;
77350;SDS011;66420;50.246;14.320;2023-04-25T01:01:11;5.13;;;2.58;;
77350;SDS011;66420;50.246;14.320;2023-04-25T01:03:58;5.47;;;2.47;;
77350;SDS011;66420;50.246;14.320;2023-04-25T01:06:43;6.38;;;2.88;;
77350;SDS011;66420;50.246;14.320;2023-04-25T01:09:30;5.57;;;2.90;;
77350;SDS011;66420;50.246;14.320;2023-04-25T01:12:16;6.40;;;2.55;;
77350;SDS011;66420;50.246;14.320;2023-04-25T01:15:00;4.53;;;2.55;;
77350;SDS011;66420;50.246;14.320;2023-04-25T01:17:45;5.60;;;2.70;;
77350;SDS011;66420;50.246;14.320;2023-04-25T01:20:30;4.85;;;2.50;;
77350;SDS011;66420;50.246;14.320;2023-04-25T01:23:16;7.68;;;2.75;;
77350;SDS011;66420;50.246;14.320;2023-04-25T01:26:01;5.10;;;2.88;;
77350;SDS011;66420;50.246;14.320;2023-04-25T01:28:46;5.68;;;2.72;;
77350;SDS011;66420;50.246;14.320;2023-04-25T01:31:32;4.45;;;2.63;;
77350;SDS011;66420;50.246;14.320;2023-04-25T01:34:18;4.70;;;2.70;;
77350;SDS011;66420;50.246;14.320;2023-04-25T01:37:04;4.90;;;2.85;;
77350;SDS011;66420;50.246;14.320;2023-04-25T01:39:48;5.63;;;2.75;;
77350;SDS011;66420;50.246;14.320;2023-04-25T01:42:35;4.78;;;2.60;;
77350;SDS011;66420;50.246;14.320;2023-04-25T01:45:22;5.13;;;3.05;;
77350;SDS011;66420;50.246;14.320;2023-04-25T01:48:07;6.57;;;2.80;;
77350;SDS011;66420;50.246;14.320;2023-04-25T01:50:56;6.75;;;2.92;;
77350;SDS011;66420;50.246;14.320;2023-04-25T01:53:41;5.05;;;3.00;;
77350;SDS011;66420;50.246;14.320;2023-04-25T01:56:31;6.22;;;3.00;;
77350;SDS011;66420;50.246;14.320;2023-04-25T01:59:18;7.07;;;2.88;;
77350;SDS011;66420;50.246;14.320;2023-04-25T02:02:04;4.45;;;2.70;;
77350;SDS011;66420;50.246;14.320;2023-04-25T02:04:48;4.70;;;2.85;;
77350;SDS011;66420;50.246;14.320;2023-04-25T02:07:33;5.00;;;2.78;;
77350;SDS011;66420;50.246;14.320;2023-04-25T02:10:19;5.47;;;2.95;;
77350;SDS011;66420;50.246;14.320;2023-04-25T02:13:04;5.57;;;3.20;;
77350;SDS011;66420;50.246;14.320;2023-04-25T02:15:49;6.22;;;3.30;;
77350;SDS011;66420;50.246;14.320;2023-04-25T02:18:34;4.60;;;2.45;;
77350;SDS011;66420;50.246;14.320;2023-04-25T02:21:21;6.30;;;3.17;;
77350;SDS011;66420;50.246;14.320;2023-04-25T02:24:05;6.55;;;3.00;;
77350;SDS011;66420;50.246;14.320;2023-04-25T02:26:50;6.13;;;3.00;;
77350;SDS011;66420;50.246;14.320;2023-04-25T02:29:35;6.40;;;3.28;;
77350;SDS011;66420;50.246;14.320;2023-04-25T02:32:20;5.80;;;3.17;;
77350;SDS011;66420;50.246;14.320;2023-04-25T02:35:06;8.63;;;3.10;;
77350;SDS011;66420;50.246;14.320;2023-04-25T02:37:51;7.28;;;3.20;;
77350;SDS011;66420;50.246;14.320;2023-04-25T02:40:35;6.18;;;3.38;;
77350;SDS011;66420;50.246;14.320;2023-04-25T02:43:20;6.70;;;3.17;;
77350;SDS011;66420;50.246;14.320;2023-04-25T02:46:06;7.40;;;3.17;;
77350;SDS011;66420;50.246;14.320;2023-04-25T02:48:52;7.00;;;3.10;;
77350;SDS011;66420;50.246;14.320;2023-04-25T02:51:37;5.82;;;3.17;;
77350;SDS011;66420;50.246;14.320;2023-04-25T02:54:21;7.78;;;3.47;;
77350;SDS011;66420;50.246;14.320;2023-04-25T02:57:06;6.82;;;3.50;;
77350;SDS011;66420;50.246;14.320;2023-04-25T02:59:51;6.88;;;3.70;;
77350;SDS011;66420;50.246;14.320;2023-04-25T03:02:35;5.10;;;3.20;;
77350;SDS011;66420;50.246;14.320;2023-04-25T03:05:20;6.70;;;3.35;;
77350;SDS011;66420;50.246;14.320;2023-04-25T03:08:05;8.10;;;3.47;;
77350;SDS011;66420;50.246;14.320;2023-04-25T03:10:50;8.70;;;3.55;;
77350;SDS011;66420;50.246;14.320;2023-04-25T03:13:36;6.30;;;3.53;;
77350;SDS011;66420;50.246;14.320;2023-04-25T03:16:21;7.68;;;3.45;;
77350;SDS011;66420;50.246;14.320;2023-04-25T03:19:05;8.48;;;4.10;;
77350;SDS011;66420;50.246;14.320;2023-04-25T03:21:50;6.45;;;3.05;;
77350;SDS011;66420;50.246;14.320;2023-04-25T03:24:35;7.18;;;3.42;;
77350;SDS011;66420;50.246;14.320;2023-04-25T03:27:20;5.50;;;3.22;;
77350;SDS011;66420;50.246;14.320;2023-04-25T03:30:05;7.43;;;3.50;;
77350;SDS011;66420;50.246;14.320;2023-04-25T03:32:50;6.68;;;3.22;;
77350;SDS011;66420;50.246;14.320;2023-04-25T03:35:35;5.60;;;3.72;;
77350;SDS011;66420;50.246;14.320;2023-04-25T03:38:20;7.93;;;3.63;;
77350;SDS011;66420;50.246;14.320;2023-04-25T03:41:04;5.93;;;3.33;;
77350;SDS011;66420;50.246;14.320;2023-04-25T03:43:49;6.93;;;2.88;;
77350;SDS011;66420;50.246;14.320;2023-04-25T03:46:34;9.93;;;4.13;;
77350;SDS011;66420;50.246;14.320;2023-04-25T03:49:19;5.93;;;3.63;;
77350;SDS011;66420;50.246;14.320;2023-04-25T03:52:04;8.02;;;3.05;;
77350;SDS011;66420;50.246;14.320;2023-04-25T03:54:49;7.63;;;3.60;;
77350;SDS011;66420;50.246;14.320;2023-04-25T03:57:34;5.28;;;3.53;;
77350;SDS011;66420;50.246;14.320;2023-04-25T04:00:18;5.13;;;2.90;;
77350;SDS011;66420;50.246;14.320;2023-04-25T04:03:03;7.47;;;3.65;;
77350;SDS011;66420;50.246;14.320;2023-04-25T04:05:48;11.32;;;3.67;;
77350;SDS011;66420;50.246;14.320;2023-04-25T04:08:33;7.68;;;3.50;;
77350;SDS011;66420;50.246;14.320;2023-04-25T04:11:18;7.53;;;3.78;;
77350;SDS011;66420;50.246;14.320;2023-04-25T04:14:02;5.22;;;3.15;;
77350;SDS011;66420;50.246;14.320;2023-04-25T04:16:47;7.53;;;3.03;;
77350;SDS011;66420;50.246;14.320;2023-04-25T04:19:32;8.00;;;4.03;;
77350;SDS011;66420;50.246;14.320;2023-04-25T04:22:16;9.55;;;3.92;;
77350;SDS011;66420;50.246;14.320;2023-04-25T04:25:01;5.60;;;3.25;;
77350;SDS011;66420;50.246;14.320;2023-04-25T04:27:46;9.68;;;4.20;;
77350;SDS011;66420;50.246;14.320;2023-04-25T04:30:31;6.40;;;3.40;;
77350;SDS011;66420;50.246;14.320;2023-04-25T04:33:17;7.85;;;3.80;;
77350;SDS011;66420;50.246;14.320;2023-04-25T04:36:03;6.65;;;3.15;;
77350;SDS011;66420;50.246;14.320;2023-04-25T04:38:48;5.32;;;3.05;;
77350;SDS011;66420;50.246;14.320;2023-04-25T04:41:33;7.70;;;3.67;;
77350;SDS011;66420;50.246;14.320;2023-04-25T04:47:59;6.20;;;3.35;;
77350;SDS011;66420;50.246;14.320;2023-04-25T04:50:44;8.38;;;4.38;;
77350;SDS011;66420;50.246;14.320;2023-04-25T04:53:31;10.60;;;3.97;;
77350;SDS011;66420;50.246;14.320;2023-04-25T04:56:16;8.38;;;3.50;;
77350;SDS011;66420;50.246;14.320;2023-04-25T04:59:00;8.25;;;4.22;;
77350;SDS011;66420;50.246;14.320;2023-04-25T05:01:46;8.35;;;4.78;;
77350;SDS011;66420;50.246;14.320;2023-04-25T05:04:31;8.73;;;4.28;;
77350;SDS011;66420;50.246;14.320;2023-04-25T05:07:15;7.75;;;4.70;;
77350;SDS011;66420;50.246;14.320;2023-04-25T05:10:00;11.60;;;4.22;;
77350;SDS011;66420;50.246;14.320;2023-04-25T05:12:44;9.32;;;4.97;;
77350;SDS011;66420;50.246;14.320;2023-04-25T05:15:29;6.75;;;3.28;;
77350;SDS011;66420;50.246;14.320;2023-04-25T05:18:13;9.18;;;4.00;;
77350;SDS011;66420;50.246;14.320;2023-04-25T05:20:58;8.13;;;3.95;;
77350;SDS011;66420;50.246;14.320;2023-04-25T05:23:43;5.45;;;3.40;;
77350;SDS011;66420;50.246;14.320;2023-04-25T05:26:28;8.48;;;3.95;;
77350;SDS011;66420;50.246;14.320;2023-04-25T05:29:15;7.38;;;3.80;;
77350;SDS011;66420;50.246;14.320;2023-04-25T05:32:00;8.10;;;3.72;;
77350;SDS011;66420;50.246;14.320;2023-04-25T05:34:44;5.50;;;3.00;;
77350;SDS011;66420;50.246;14.320;2023-04-25T05:37:29;5.18;;;3.30;;
77350;SDS011;66420;50.246;14.320;2023-04-25T05:40:16;9.32;;;4.50;;
77350;SDS011;66420;50.246;14.320;2023-04-25T05:43:01;9.63;;;5.20;;
77350;SDS011;66420;50.246;14.320;2023-04-25T05:45:46;10.02;;;4.38;;
77350;SDS011;66420;50.246;14.320;2023-04-25T05:48:31;9.38;;;4.38;;
77350;SDS011;66420;50.246;14.320;2023-04-25T05:51:15;10.98;;;4.75;;
77350;SDS011;66420;50.246;14.320;2023-04-25T05:54:00;16.38;;;6.13;;
77350;SDS011;66420;50.246;14.320;2023-04-25T05:56:45;12.25;;;5.32;;
77350;SDS011;66420;50.246;14.320;2023-04-25T05:59:30;9.57;;;5.45;;
77350;SDS011;66420;50.246;14.320;2023-04-25T06:02:15;12.60;;;5.53;;
77350;SDS011;66420;50.246;14.320;2023-04-25T06:04:59;10.02;;;4.82;;
77350;SDS011;66420;50.246;14.320;2023-04-25T06:07:44;8.95;;;4.80;;
77350;SDS011;66420;50.246;14.320;2023-04-25T06:10:29;8.10;;;4.25;;
77350;SDS011;66420;50.246;14.320;2023-04-25T06:13:14;7.38;;;4.40;;
77350;SDS011;66420;50.246;14.320;2023-04-25T06:15:59;7.70;;;4.25;;
77350;SDS011;66420;50.246;14.320;2023-04-25T06:18:44;9.07;;;5.00;;
77350;SDS011;66420;50.246;14.320;2023-04-25T06:21:29;9.35;;;5.00;;
77350;SDS011;66420;50.246;14.320;2023-04-25T06:24:13;8.77;;;5.18;;
77350;SDS011;66420;50.246;14.320;2023-04-25T06:26:58;7.95;;;4.78;;
77350;SDS011;66420;50.246;14.320;2023-04-25T06:29:44;9.65;;;5.90;;
77350;SDS011;66420;50.246;14.320;2023-04-25T06:32:28;11.82;;;5.20;;
77350;SDS011;66420;50.246;14.320;2023-04-25T06:35:14;10.00;;;5.22;;
77350;SDS011;66420;50.246;14.320;2023-04-25T06:37:59;9.30;;;5.20;;
77350;SDS011;66420;50.246;14.320;2023-04-25T06:40:44;8.00;;;5.18;;
77350;SDS011;66420;50.246;14.320;2023-04-25T06:43:29;10.13;;;5.22;;
77350;SDS011;66420;50.246;14.320;2023-04-25T06:46:17;9.75;;;5.07;;
77350;SDS011;66420;50.246;14.320;2023-04-25T06:49:02;9.25;;;4.60;;
77350;SDS011;66420;50.246;14.320;2023-04-25T06:51:47;7.15;;;4.50;;
77350;SDS011;66420;50.246;14.320;2023-04-25T06:54:31;12.23;;;4.68;;
77350;SDS011;66420;50.246;14.320;2023-04-25T06:57:16;8.40;;;4.57;;
77350;SDS011;66420;50.246;14.320;2023-04-25T07:00:01;7.82;;;4.65;;
77350;SDS011;66420;50.246;14.320;2023-04-25T07:02:49;9.18;;;4.43;;
77350;SDS011;66420;50.246;14.320;2023-04-25T07:05:34;7.20;;;4.28;;
77350;SDS011;66420;50.246;14.320;2023-04-25T07:08:19;11.02;;;4.78;;
77350;SDS011;66420;50.246;14.320;2023-04-25T07:11:05;10.02;;;4.57;;
77350;SDS011;66420;50.246;14.320;2023-04-25T07:13:49;8.30;;;4.28;;
77350;SDS011;66420;50.246;14.320;2023-04-25T07:16:34;11.00;;;4.72;;
77350;SDS011;66420;50.246;14.320;2023-04-25T07:19:19;9.93;;;4.53;;
77350;SDS011;66420;50.246;14.320;2023-04-25T07:22:03;8.95;;;4.85;;
77350;SDS011;66420;50.246;14.320;2023-04-25T07:24:48;9.07;;;4.28;;
77350;SDS011;66420;50.246;14.320;2023-04-25T07:27:33;8.60;;;4.53;;
77350;SDS011;66420;50.246;14.320;2023-04-25T07:30:18;7.45;;;4.55;;
77350;SDS011;66420;50.246;14.320;2023-04-25T07:33:03;7.35;;;4.45;;
77350;SDS011;66420;50.246;14.320;2023-04-25T07:35:48;10.73;;;4.97;;
77350;SDS011;66420;50.246;14.320;2023-04-25T07:38:34;10.30;;;4.88;;
77350;SDS011;66420;50.246;14.320;2023-04-25T07:41:19;10.50;;;5.00;;
77350;SDS011;66420;50.246;14.320;2023-04-25T07:44:04;9.40;;;4.20;;
77350;SDS011;66420;50.246;14.320;2023-04-25T07:46:49;6.50;;;4.22;;
77350;SDS011;66420;50.246;14.320;2023-04-25T07:49:34;7.50;;;4.63;;
77350;SDS011;66420;50.246;14.320;2023-04-25T07:52:19;8.80;;;4.28;;
77350;SDS011;66420;50.246;14.320;2023-04-25T07:55:04;9.77;;;4.80;;
77350;SDS011;66420;50.246;14.320;2023-04-25T07:57:49;8.60;;;5.10;;
77350;SDS011;66420;50.246;14.320;2023-04-25T08:00:34;11.35;;;4.68;;
77350;SDS011;66420;50.246;14.320;2023-04-25T08:03:19;9.23;;;4.65;;
77350;SDS011;66420;50.246;14.320;2023-04-25T08:06:05;8.80;;;4.57;;
77350;SDS011;66420;50.246;14.320;2023-04-25T08:08:51;8.85;;;4.38;;
77350;SDS011;66420;50.246;14.320;2023-04-25T08:11:35;6.63;;;4.20;;
77350;SDS011;66420;50.246;14.320;2023-04-25T08:14:21;6.88;;;4.38;;
77350;SDS011;66420;50.246;14.320;2023-04-25T08:17:06;6.75;;;4.03;;
77350;SDS011;66420;50.246;14.320;2023-04-25T08:19:51;7.85;;;4.63;;
77350;SDS011;66420;50.246;14.320;2023-04-25T08:22:35;8.27;;;4.13;;
77350;SDS011;66420;50.246;14.320;2023-04-25T08:25:20;7.72;;;3.97;;
77350;SDS011;66420;50.246;14.320;2023-04-25T08:28:05;6.97;;;4.25;;
77350;SDS011;66420;50.246;14.320;2023-04-25T08:30:50;7.40;;;4.18;;
77350;SDS011;66420;50.246;14.320;2023-04-25T08:33:35;7.65;;;3.65;;
77350;SDS011;66420;50.246;14.320;2023-04-25T08:36:20;7.32;;;4.43;;
77350;SDS011;66420;50.246;14.320;2023-04-25T08:39:05;6.60;;;3.80;;
77350;SDS011;66420;50.246;14.320;2023-04-25T08:41:49;6.13;;;3.70;;
77350;SDS011;66420;50.246;14.320;2023-04-25T08:44:34;9.50;;;3.97;;
77350;SDS011;66420;50.246;14.320;2023-04-25T08:47:20;7.85;;;3.92;;
77350;SDS011;66420;50.246;14.320;2023-04-25T08:50:07;8.00;;;4.22;;
77350;SDS011;66420;50.246;14.320;2023-04-25T08:52:52;5.93;;;3.40;;
77350;SDS011;66420;50.246;14.320;2023-04-25T08:55:38;7.40;;;4.00;;
77350;SDS011;66420;50.246;14.320;2023-04-25T08:58:26;6.15;;;3.60;;
77350;SDS011;66420;50.246;14.320;2023-04-25T09:01:12;5.68;;;3.22;;
77350;SDS011;66420;50.246;14.320;2023-04-25T09:03:57;6.43;;;3.03;;
77350;SDS011;66420;50.246;14.320;2023-04-25T09:06:41;10.40;;;4.38;;
77350;SDS011;66420;50.246;14.320;2023-04-25T09:09:26;7.22;;;3.70;;
77350;SDS011;66420;50.246;14.320;2023-04-25T09:12:10;7.88;;;3.80;;
77350;SDS011;66420;50.246;14.320;2023-04-25T09:15:03;6.78;;;3.35;;
77350;SDS011;66420;50.246;14.320;2023-04-25T09:17:56;5.32;;;3.10;;
77350;SDS011;66420;50.246;14.320;2023-04-25T09:20:41;5.63;;;3.05;;
77350;SDS011;66420;50.246;14.320;2023-04-25T09:23:27;5.85;;;2.90;;
77350;SDS011;66420;50.246;14.320;2023-04-25T09:26:16;6.03;;;3.65;;
77350;SDS011;66420;50.246;14.320;2023-04-25T09:29:05;4.72;;;3.35;;
77350;SDS011;66420;50.246;14.320;2023-04-25T09:31:51;9.45;;;3.75;;
77350;SDS011;66420;50.246;14.320;2023-04-25T09:34:43;7.60;;;3.50;;
77350;SDS011;66420;50.246;14.320;2023-04-25T09:37:29;6.78;;;3.78;;
77350;SDS011;66420;50.246;14.320;2023-04-25T09:40:14;9.70;;;4.90;;
77350;SDS011;66420;50.246;14.320;2023-04-25T09:42:59;7.00;;;4.47;;
77350;SDS011;66420;50.246;14.320;2023-04-25T09:45:44;7.57;;;4.40;;
77350;SDS011;66420;50.246;14.320;2023-04-25T09:48:29;10.00;;;4.35;;
77350;SDS011;66420;50.246;14.320;2023-04-25T09:51:14;8.93;;;4.45;;
77350;SDS011;66420;50.246;14.320;2023-04-25T09:53:59;9.52;;;5.65;;
77350;SDS011;66420;50.246;14.320;2023-04-25T09:56:43;10.75;;;5.95;;
77350;SDS011;66420;50.246;14.320;2023-04-25T09:59:32;9.32;;;5.13;;
77350;SDS011;66420;50.246;14.320;2023-04-25T10:02:22;13.02;;;5.38;;
77350;SDS011;66420;50.246;14.320;2023-04-25T10:05:09;10.48;;;5.05;;
77350;SDS011;66420;50.246;14.320;2023-04-25T10:07:55;9.32;;;4.20;;
77350;SDS011;66420;50.246;14.320;2023-04-25T10:10:40;8.10;;;4.63;;
77350;SDS011;66420;50.246;14.320;2023-04-25T10:13:25;9.05;;;4.43;;
77350;SDS011;66420;50.246;14.320;2023-04-25T10:16:12;14.05;;;4.28;;
77350;SDS011;66420;50.246;14.320;2023-04-25T10:18:57;8.52;;;4.03;;
77350;SDS011;66420;50.246;14.320;2023-04-25T10:21:52;8.57;;;4.15;;
77350;SDS011;66420;50.246;14.320;2023-04-25T10:24:42;7.60;;;4.20;;
77350;SDS011;66420;50.246;14.320;2023-04-25T10:27:28;7.32;;;4.00;;
77350;SDS011;66420;50.246;14.320;2023-04-25T10:30:14;7.13;;;3.85;;
77350;SDS011;66420;50.246;14.320;2023-04-25T10:32:59;8.63;;;3.67;;
77350;SDS011;66420;50.246;14.320;2023-04-25T10:35:44;9.52;;;4.60;;
77350;SDS011;66420;50.246;14.320;2023-04-25T10:38:29;9.35;;;4.72;;
77350;SDS011;66420;50.246;14.320;2023-04-25T10:41:14;9.48;;;4.50;;
77350;SDS011;66420;50.246;14.320;2023-04-25T10:44:02;8.13;;;4.85;;
77350;SDS011;66420;50.246;14.320;2023-04-25T10:46:48;9.50;;;4.30;;
77350;SDS011;66420;50.246;14.320;2023-04-25T10:49:34;10.02;;;5.25;;
77350;SDS011;66420;50.246;14.320;2023-04-25T10:52:26;7.72;;;4.68;;
77350;SDS011;66420;50.246;14.320;2023-04-25T10:55:12;7.72;;;5.13;;
77350;SDS011;66420;50.246;14.320;2023-04-25T10:57:57;7.55;;;4.70;;
77350;SDS011;66420;50.246;14.320;2023-04-25T11:00:41;10.73;;;5.93;;
77350;SDS011;66420;50.246;14.320;2023-04-25T11:03:26;7.47;;;4.97;;
77350;SDS011;66420;50.246;14.320;2023-04-25T11:06:58;7.90;;;5.10;;
77350;SDS011;66420;50.246;14.320;2023-04-25T11:09:34;5.15;;;2.88;;
77350;SDS011;66420;50.246;14.320;2023-04-25T11:12:20;4.82;;;2.67;;
77350;SDS011;66420;50.246;14.320;2023-04-25T11:15:05;5.65;;;2.40;;
77350;SDS011;66420;50.246;14.320;2023-04-25T11:17:54;8.18;;;2.50;;
77350;SDS011;66420;50.246;14.320;2023-04-25T11:20:39;4.65;;;2.10;;
77350;SDS011;66420;50.246;14.320;2023-04-25T11:26:14;4.15;;;2.53;;
77350;SDS011;66420;50.246;14.320;2023-04-25T11:28:59;6.28;;;2.97;;
77350;SDS011;66420;50.246;14.320;2023-04-25T11:31:44;5.53;;;2.97;;
77350;SDS011;66420;50.246;14.320;2023-04-25T11:34:30;5.80;;;2.22;;
77350;SDS011;66420;50.246;14.320;2023-04-25T11:37:16;4.13;;;2.60;;
77350;SDS011;66420;50.246;14.320;2023-04-25T11:40:05;4.15;;;2.15;;
77350;SDS011;66420;50.246;14.320;2023-04-25T11:42:51;2.85;;;1.67;;
77350;SDS011;66420;50.246;14.320;2023-04-25T11:45:36;3.95;;;1.90;;
77350;SDS011;66420;50.246;14.320;2023-04-25T11:48:21;3.60;;;2.28;;
77350;SDS011;66420;50.246;14.320;2023-04-25T11:51:06;3.97;;;2.35;;
77350;SDS011;66420;50.246;14.320;2023-04-25T11:53:51;4.90;;;2.40;;
77350;SDS011;66420;50.246;14.320;2023-04-25T11:56:36;5.75;;;2.70;;
77350;SDS011;66420;50.246;14.320;2023-04-25T11:59:24;5.65;;;2.65;;
77350;SDS011;66420;50.246;14.320;2023-04-25T12:02:09;7.22;;;2.83;;
77350;SDS011;66420;50.246;14.320;2023-04-25T12:05:10;4.22;;;2.67;;
77350;SDS011;66420;50.246;14.320;2023-04-25T12:07:55;7.25;;;3.20;;
77350;SDS011;66420;50.246;14.320;2023-04-25T12:10:42;8.35;;;3.15;;
77350;SDS011;66420;50.246;14.320;2023-04-25T12:13:28;4.35;;;2.50;;
77350;SDS011;66420;50.246;14.320;2023-04-25T12:16:14;5.32;;;2.42;;
77350;SDS011;66420;50.246;14.320;2023-04-25T12:18:59;5.35;;;2.35;;
77350;SDS011;66420;50.246;14.320;2023-04-25T12:21:44;5.00;;;2.20;;
77350;SDS011;66420;50.246;14.320;2023-04-25T12:24:29;7.40;;;2.30;;
77350;SDS011;66420;50.246;14.320;2023-04-25T12:27:14;5.05;;;2.17;;
77350;SDS011;66420;50.246;14.320;2023-04-25T12:30:02;3.70;;;2.08;;
77350;SDS011;66420;50.246;14.320;2023-04-25T12:32:48;3.22;;;1.98;;
77350;SDS011;66420;50.246;14.320;2023-04-25T12:35:33;7.95;;;2.28;;
77350;SDS011;66420;50.246;14.320;2023-04-25T12:38:27;5.05;;;2.60;;
77350;SDS011;66420;50.246;14.320;2023-04-25T12:41:14;3.72;;;2.05;;
77350;SDS011;66420;50.246;14.320;2023-04-25T12:43:59;3.90;;;2.10;;
77350;SDS011;66420;50.246;14.320;2023-04-25T12:46:44;4.55;;;1.90;;
77350;SDS011;66420;50.246;14.320;2023-04-25T12:49:29;4.00;;;1.90;;
77350;SDS011;66420;50.246;14.320;2023-04-25T12:52:15;4.43;;;1.92;;
77350;SDS011;66420;50.246;14.320;2023-04-25T12:54:59;4.20;;;1.92;;
77350;SDS011;66420;50.246;14.320;2023-04-25T12:57:44;5.60;;;1.90;;
77350;SDS011;66420;50.246;14.320;2023-04-25T13:00:29;6.07;;;2.20;;
77350;SDS011;66420;50.246;14.320;2023-04-25T13:03:14;3.75;;;1.98;;
77350;SDS011;66420;50.246;14.320;2023-04-25T13:05:59;4.07;;;1.65;;
77350;SDS011;66420;50.246;14.320;2023-04-25T13:08:45;6.00;;;2.10;;
77350;SDS011;66420;50.246;14.320;2023-04-25T13:11:30;5.88;;;2.13;;
77350;SDS011;66420;50.246;14.320;2023-04-25T13:14:15;4.20;;;1.83;;
77350;SDS011;66420;50.246;14.320;2023-04-25T13:17:00;2.60;;;2.00;;
77350;SDS011;66420;50.246;14.320;2023-04-25T13:19:44;3.00;;;1.75;;
77350;SDS011;66420;50.246;14.320;2023-04-25T13:22:29;3.85;;;1.98;;
77350;SDS011;66420;50.246;14.320;2023-04-25T13:25:14;3.67;;;2.10;;
77350;SDS011;66420;50.246;14.320;2023-04-25T13:27:59;3.85;;;1.75;;
77350;SDS011;66420;50.246;14.320;2023-04-25T13:30:46;6.18;;;2.00;;
77350;SDS011;66420;50.246;14.320;2023-04-25T13:33:32;6.75;;;2.00;;
77350;SDS011;66420;50.246;14.320;2023-04-25T13:36:17;3.88;;;1.70;;
77350;SDS011;66420;50.246;14.320;2023-04-25T13:39:01;3.90;;;1.75;;
77350;SDS011;66420;50.246;14.320;2023-04-25T13:41:47;7.63;;;1.85;;
77350;SDS011;66420;50.246;14.320;2023-04-25T13:44:32;2.70;;;1.70;;
77350;SDS011;66420;50.246;14.320;2023-04-25T13:47:17;2.92;;;1.63;;
77350;SDS011;66420;50.246;14.320;2023-04-25T13:50:01;3.83;;;1.75;;
77350;SDS011;66420;50.246;14.320;2023-04-25T13:52:47;2.95;;;1.60;;
77350;SDS011;66420;50.246;14.320;2023-04-25T13:55:33;2.45;;;1.42;;
77350;SDS011;66420;50.246;14.320;2023-04-25T13:58:21;2.92;;;1.50;;
77350;SDS011;66420;50.246;14.320;2023-04-25T14:01:05;2.88;;;1.50;;
77350;SDS011;66420;50.246;14.320;2023-04-25T14:03:50;3.17;;;1.90;;
77350;SDS011;66420;50.246;14.320;2023-04-25T14:06:35;2.92;;;1.70;;
77350;SDS011;66420;50.246;14.320;2023-04-25T14:09:20;3.03;;;1.83;;
77350;SDS011;66420;50.246;14.320;2023-04-25T14:12:09;7.13;;;2.33;;
77350;SDS011;66420;50.246;14.320;2023-04-25T14:14:55;3.72;;;1.85;;
77350;SDS011;66420;50.246;14.320;2023-04-25T14:17:39;6.25;;;2.30;;
77350;SDS011;66420;50.246;14.320;2023-04-25T14:20:24;4.25;;;2.55;;
77350;SDS011;66420;50.246;14.320;2023-04-25T14:23:09;6.68;;;2.67;;
77350;SDS011;66420;50.246;14.320;2023-04-25T14:25:54;4.97;;;3.10;;
77350;SDS011;66420;50.246;14.320;2023-04-25T14:28:39;6.97;;;3.13;;
77350;SDS011;66420;50.246;14.320;2023-04-25T14:31:24;6.75;;;3.30;;
77350;SDS011;66420;50.246;14.320;2023-04-25T14:34:09;5.85;;;3.13;;
77350;SDS011;66420;50.246;14.320;2023-04-25T14:36:55;4.38;;;2.80;;
77350;SDS011;66420;50.246;14.320;2023-04-25T14:39:40;4.28;;;2.50;;
77350;SDS011;66420;50.246;14.320;2023-04-25T14:42:26;5.82;;;2.88;;
77350;SDS011;66420;50.246;14.320;2023-04-25T14:45:11;6.28;;;3.17;;
77350;SDS011;66420;50.246;14.320;2023-04-25T14:47:56;6.70;;;3.30;;
77350;SDS011;66420;50.246;14.320;2023-04-25T14:50:40;4.85;;;2.78;;
77350;SDS011;66420;50.246;14.320;2023-04-25T14:53:27;5.00;;;3.10;;
77350;SDS011;66420;50.246;14.320;2023-04-25T14:56:12;6.22;;;3.13;;
77350;SDS011;66420;50.246;14.320;2023-04-25T14:58:57;7.38;;;3.70;;
77350;SDS011;66420;50.246;14.320;2023-04-25T15:01:42;5.85;;;3.38;;
77350;SDS011;66420;50.246;14.320;2023-04-25T15:04:28;7.72;;;4.13;;
77350;SDS011;66420;50.246;14.320;2023-04-25T15:07:12;9.10;;;4.38;;
77350;SDS011;66420;50.246;14.320;2023-04-25T15:09:57;6.43;;;4.32;;
77350;SDS011;66420;50.246;14.320;2023-04-25T15:12:42;6.15;;;4.03;;
77350;SDS011;66420;50.246;14.320;2023-04-25T15:15:28;7.05;;;4.40;;
77350;SDS011;66420;50.246;14.320;2023-04-25T15:18:13;7.15;;;4.65;;
77350;SDS011;66420;50.246;14.320;2023-04-25T15:20:58;9.80;;;4.88;;
77350;SDS011;66420;50.246;14.320;2023-04-25T15:23:43;7.43;;;4.53;;
77350;SDS011;66420;50.246;14.320;2023-04-25T15:26:29;6.20;;;4.10;;
77350;SDS011;66420;50.246;14.320;2023-04-25T15:29:13;7.35;;;4.05;;
77350;SDS011;66420;50.246;14.320;2023-04-25T15:31:59;7.82;;;4.13;;
77350;SDS011;66420;50.246;14.320;2023-04-25T15:34:44;8.20;;;4.13;;
77350;SDS011;66420;50.246;14.320;2023-04-25T15:37:29;11.77;;;4.28;;
77350;SDS011;66420;50.246;14.320;2023-04-25T15:40:14;6.80;;;3.80;;
77350;SDS011;66420;50.246;14.320;2023-04-25T15:43:00;8.02;;;4.07;;
77350;SDS011;66420;50.246;14.320;2023-04-25T15:45:45;6.93;;;3.72;;
77350;SDS011;66420;50.246;14.320;2023-04-25T15:48:30;8.85;;;3.70;;
77350;SDS011;66420;50.246;14.320;2023-04-25T15:51:15;6.70;;;3.35;;
77350;SDS011;66420;50.246;14.320;2023-04-25T15:54:01;8.90;;;2.80;;
77350;SDS011;66420;50.246;14.320;2023-04-25T15:56:45;8.02;;;3.20;;
77350;SDS011;66420;50.246;14.320;2023-04-25T15:59:30;7.90;;;3.00;;
77350;SDS011;66420;50.246;14.320;2023-04-25T16:02:15;6.47;;;2.78;;
77350;SDS011;66420;50.246;14.320;2023-04-25T16:05:01;7.68;;;3.10;;
77350;SDS011;66420;50.246;14.320;2023-04-25T16:07:46;7.15;;;2.55;;
77350;SDS011;66420;50.246;14.320;2023-04-25T16:10:31;7.03;;;2.75;;
77350;SDS011;66420;50.246;14.320;2023-04-25T16:13:17;6.43;;;2.35;;
77350;SDS011;66420;50.246;14.320;2023-04-25T16:16:01;7.40;;;3.33;;
77350;SDS011;66420;50.246;14.320;2023-04-25T16:18:46;23.50;;;9.07;;
77350;SDS011;66420;50.246;14.320;2023-04-25T16:21:30;7.18;;;3.50;;
77350;SDS011;66420;50.246;14.320;2023-04-25T16:24:15;6.90;;;3.10;;
77350;SDS011;66420;50.246;14.320;2023-04-25T16:27:00;7.40;;;3.10;;
77350;SDS011;66420;50.246;14.320;2023-04-25T16:29:46;7.97;;;3.08;;
77350;SDS011;66420;50.246;14.320;2023-04-25T16:32:32;8.85;;;2.88;;